createdAt,value
2018-09-20T00:01:38.676Z,22.42
2018-09-20T00:04:07.484Z,22.43
2018-09-20T00:06:36.324Z,22.46
2018-09-20T00:09:07.581Z,22.42
2018-09-20T00:11:36.344Z,22.41
2018-09-20T00:14:05.099Z,22.41
2018-09-20T00:16:33.810Z,22.42
2018-09-20T00:19:04.292Z,22.41
2018-09-20T00:21:33.227Z,22.42
2018-09-20T00:24:02.684Z,22.43
2018-09-20T00:26:31.435Z,22.42
2018-09-20T00:29:00.215Z,22.41
2018-09-20T00:31:30.838Z,22.38
2018-09-20T00:33:59.828Z,22.33
2018-09-20T00:36:29.170Z,22.34
2018-09-20T00:38:57.779Z,22.30
2018-09-20T00:41:26.359Z,22.31
2018-09-20T00:43:55.032Z,22.27
2018-09-20T00:46:25.350Z,22.27
2018-09-20T00:48:56.380Z,22.27
2018-09-20T00:51:25.235Z,22.26
2018-09-20T00:53:54.222Z,22.27
2018-09-20T00:56:23.010Z,22.28
2018-09-20T00:58:51.603Z,22.24
2018-09-20T01:01:20.250Z,22.20
2018-09-20T01:03:49.314Z,22.18
2018-09-20T01:06:18.411Z,22.15
2018-09-20T01:08:47.122Z,22.12
2018-09-20T01:11:16.137Z,22.10
2018-09-20T01:13:44.897Z,22.10
2018-09-20T01:16:14.546Z,22.10
2018-09-20T01:18:43.325Z,22.06
2018-09-20T01:21:12.015Z,22.04
2018-09-20T01:23:40.629Z,22.03
2018-09-20T01:26:09.654Z,22.00
2018-09-20T01:28:38.347Z,21.91
2018-09-20T01:31:07.364Z,21.89
2018-09-20T01:33:36.499Z,21.88
2018-09-20T01:36:05.880Z,21.92
2018-09-20T01:38:34.518Z,21.90
2018-09-20T01:41:03.960Z,21.92
2018-09-20T01:43:32.874Z,21.89
2018-09-20T01:46:02.588Z,21.91
2018-09-20T01:48:31.398Z,21.93
2018-09-20T01:51:00.201Z,21.90
2018-09-20T01:53:28.893Z,21.87
2018-09-20T01:55:57.537Z,21.87
2018-09-20T01:58:26.575Z,21.87
2018-09-20T02:00:55.246Z,21.86
2018-09-20T02:03:24.626Z,21.84
2018-09-20T02:05:54.363Z,21.87
2018-09-20T02:08:23.145Z,21.83
2018-09-20T02:10:51.878Z,21.82
2018-09-20T02:13:20.801Z,21.83
2018-09-20T02:15:49.726Z,21.84
2018-09-20T02:18:18.448Z,21.84
2018-09-20T02:20:47.201Z,21.79
2018-09-20T02:23:15.984Z,21.70
2018-09-20T02:25:44.681Z,21.73
2018-09-20T02:28:13.946Z,21.65
2018-09-20T02:30:43.495Z,21.52
2018-09-20T02:33:12.610Z,21.58
2018-09-20T02:35:41.418Z,21.52
2018-09-20T02:38:10.215Z,21.54
2018-09-20T02:40:38.901Z,21.59
2018-09-20T02:43:08.648Z,21.52
2018-09-20T02:45:37.929Z,21.44
2018-09-20T02:48:41.323Z,21.31
2018-09-20T02:51:10.031Z,21.23
2018-09-20T02:53:38.744Z,21.17
2018-09-20T02:56:07.611Z,21.10
2018-09-20T02:58:36.599Z,20.97
2018-09-20T03:01:05.233Z,20.93
2018-09-20T03:03:33.978Z,20.85
2018-09-20T03:06:03.285Z,20.81
2018-09-20T03:08:31.922Z,20.76
2018-09-20T03:11:00.566Z,20.71
2018-09-20T03:13:29.242Z,20.63
2018-09-20T03:15:57.915Z,20.57
2018-09-20T03:18:26.657Z,20.53
2018-09-20T03:20:55.510Z,20.43
2018-09-20T03:23:24.265Z,20.37
2018-09-20T03:25:52.880Z,20.33
2018-09-20T03:28:21.768Z,20.30
2018-09-20T03:30:50.740Z,20.27
2018-09-20T03:33:19.530Z,20.24
2018-09-20T03:35:48.159Z,20.26
2018-09-20T03:38:16.948Z,20.23
2018-09-20T03:40:45.596Z,20.26
2018-09-20T03:43:14.290Z,20.29
2018-09-20T03:45:43.274Z,20.28
2018-09-20T03:48:11.920Z,20.24
2018-09-20T03:50:40.847Z,20.24
2018-09-20T03:53:09.494Z,20.23
2018-09-20T03:55:38.319Z,20.20
2018-09-20T03:58:07.024Z,20.18
2018-09-20T04:00:35.755Z,20.22
2018-09-20T04:03:04.596Z,20.13
2018-09-20T04:05:33.581Z,20.15
2018-09-20T04:08:02.814Z,20.17
2018-09-20T04:10:31.411Z,20.20
2018-09-20T04:13:00.126Z,20.20
2018-09-20T04:15:28.977Z,20.21
2018-09-20T04:17:57.568Z,20.18
2018-09-20T04:20:26.487Z,20.17
2018-09-20T04:22:55.099Z,20.21
2018-09-20T04:25:23.841Z,20.19
2018-09-20T04:27:52.403Z,20.23
2018-09-20T04:30:21.105Z,20.27
2018-09-20T04:32:49.757Z,20.22
2018-09-20T04:35:18.461Z,20.14
2018-09-20T04:37:47.161Z,20.11
2018-09-20T04:40:15.873Z,20.08
2018-09-20T04:42:44.567Z,20.01
2018-09-20T04:45:14.440Z,19.94
2018-09-20T04:47:44.024Z,19.86
2018-09-20T04:50:12.747Z,19.79
2018-09-20T04:52:41.485Z,19.76
2018-09-20T04:55:10.202Z,19.70
2018-09-20T04:57:39.128Z,19.65
2018-09-20T05:00:07.870Z,19.58
2018-09-20T05:02:36.540Z,19.55
2018-09-20T05:05:05.339Z,19.49
2018-09-20T05:07:34.109Z,19.44
2018-09-20T05:10:03.389Z,19.42
2018-09-20T05:12:32.108Z,19.41
2018-09-20T05:15:00.818Z,19.37
2018-09-20T05:17:29.503Z,19.29
2018-09-20T05:19:59.448Z,19.29
2018-09-20T05:22:28.113Z,19.26
2018-09-20T05:24:56.884Z,19.23
2018-09-20T05:27:25.535Z,19.21
2018-09-20T05:29:54.322Z,19.22
2018-09-20T05:32:22.995Z,19.20
2018-09-20T05:34:51.753Z,19.17
2018-09-20T05:37:20.572Z,19.16
2018-09-20T05:39:49.264Z,19.17
2018-09-20T05:42:18.083Z,19.22
2018-09-20T05:44:46.729Z,19.26
2018-09-20T05:47:15.368Z,19.27
2018-09-20T05:49:44.149Z,19.30
2018-09-20T05:52:12.897Z,19.35
2018-09-20T05:54:41.686Z,19.45
2018-09-20T05:57:10.324Z,19.51
2018-09-20T05:59:39.007Z,19.59
2018-09-20T06:02:07.744Z,19.70
2018-09-20T06:04:36.454Z,19.75
2018-09-20T06:07:05.281Z,19.81
2018-09-20T06:09:34.120Z,19.88
2018-09-20T06:12:03.880Z,19.95
2018-09-20T06:14:32.543Z,19.98
2018-09-20T06:17:02.661Z,20.04
2018-09-20T06:19:31.282Z,20.06
2018-09-20T06:22:00.116Z,20.03
2018-09-20T06:24:28.986Z,20.02
2018-09-20T06:26:57.678Z,20.02
2018-09-20T06:29:26.664Z,20.01
2018-09-20T06:31:55.977Z,20.06
2018-09-20T06:34:24.607Z,20.18
2018-09-20T06:36:53.511Z,20.26
2018-09-20T06:39:24.069Z,20.40
2018-09-20T06:41:52.768Z,20.45
2018-09-20T06:44:21.484Z,20.49
2018-09-20T06:46:50.484Z,20.58
2018-09-20T06:49:19.215Z,20.67
2018-09-20T06:51:48.145Z,20.75
2018-09-20T06:54:16.903Z,20.80
2018-09-20T06:56:45.738Z,20.85
2018-09-20T06:59:15.795Z,20.90
2018-09-20T07:01:50.021Z,20.96
2018-09-20T07:04:18.842Z,21.01
2018-09-20T07:06:47.528Z,21.03
2018-09-20T07:09:16.224Z,21.09
2018-09-20T07:11:45.043Z,21.16
2018-09-20T07:14:15.067Z,21.24
2018-09-20T07:16:43.873Z,21.28
2018-09-20T07:19:12.645Z,21.34
2018-09-20T07:21:41.330Z,21.38
2018-09-20T07:24:10.458Z,21.41
2018-09-20T07:26:39.420Z,21.46
2018-09-20T07:29:08.174Z,21.50
2018-09-20T07:31:36.820Z,21.52
2018-09-20T07:34:07.189Z,21.56
2018-09-20T07:36:36.097Z,21.58
2018-09-20T07:39:07.833Z,21.65
2018-09-20T07:41:36.908Z,21.68
2018-09-20T07:44:05.703Z,21.74
2018-09-20T07:46:34.354Z,21.78
2018-09-20T07:49:03.597Z,21.80
2018-09-20T07:51:32.327Z,21.82
2018-09-20T07:54:02.096Z,21.82
2018-09-20T07:56:31.029Z,21.84
2018-09-20T07:58:59.587Z,21.88
2018-09-20T08:01:28.283Z,21.92
2018-09-20T08:03:56.832Z,21.99
2018-09-20T08:06:25.573Z,22.03
2018-09-20T08:08:54.333Z,22.10
2018-09-20T08:11:24.078Z,22.12
2018-09-20T08:13:53.447Z,22.15
2018-09-20T08:16:22.200Z,22.17
2018-09-20T08:18:51.704Z,22.21
2018-09-20T08:21:20.307Z,22.24
2018-09-20T08:23:49.097Z,22.27
2018-09-20T08:26:17.855Z,22.32
2018-09-20T08:28:46.779Z,22.35
2018-09-20T08:31:15.347Z,22.39
2018-09-20T08:33:44.321Z,22.43
2018-09-20T08:36:13.084Z,22.50
2018-09-20T08:38:41.953Z,22.55
2018-09-20T08:41:12.460Z,22.62
2018-09-20T08:43:41.232Z,22.66
2018-09-20T08:46:10.080Z,22.75
2018-09-20T08:48:39.815Z,22.75
2018-09-20T08:51:08.595Z,22.78
2018-09-20T08:53:37.274Z,22.84
2018-09-20T08:56:06.306Z,22.91
2018-09-20T08:58:35.343Z,22.98
2018-09-20T09:01:05.896Z,23.02
2018-09-20T09:03:34.539Z,23.04
2018-09-20T09:06:03.955Z,23.05
2018-09-20T09:08:32.841Z,23.16
2018-09-20T09:11:01.498Z,23.20
2018-09-20T09:13:30.327Z,23.26
2018-09-20T09:15:58.975Z,23.32
2018-09-20T09:18:27.683Z,23.34
2018-09-20T09:20:56.516Z,23.37
2018-09-20T09:23:25.469Z,23.37
2018-09-20T09:25:54.256Z,23.40
2018-09-20T09:28:23.117Z,23.41
2018-09-20T09:30:51.976Z,23.40
2018-09-20T09:33:21.341Z,23.42
2018-09-20T09:35:49.954Z,23.43
2018-09-20T09:38:18.777Z,23.46
2018-09-20T09:40:48.063Z,23.49
2018-09-20T09:43:17.182Z,23.48
2018-09-20T09:45:45.915Z,23.52
2018-09-20T09:48:14.497Z,23.53
2018-09-20T09:50:43.502Z,23.59
2018-09-20T09:53:12.236Z,23.66
2018-09-20T09:55:41.119Z,23.75
2018-09-20T09:58:09.972Z,23.85
2018-09-20T10:00:40.625Z,23.89
2018-09-20T10:03:09.308Z,23.96
2018-09-20T10:05:40.440Z,24.01
2018-09-20T10:08:10.171Z,24.15
2018-09-20T10:10:38.928Z,24.22
2018-09-20T10:13:07.739Z,24.26
2018-09-20T10:15:36.448Z,24.28
2018-09-20T10:18:05.416Z,24.39
2018-09-20T10:20:34.014Z,24.47
2018-09-20T10:23:03.294Z,24.56
2018-09-20T10:25:32.064Z,24.66
2018-09-20T10:28:00.981Z,24.83
2018-09-20T10:30:29.668Z,24.94
2018-09-20T10:32:59.325Z,25.04
2018-09-20T10:35:28.143Z,25.08
2018-09-20T10:37:56.948Z,25.13
2018-09-20T10:40:25.636Z,25.18
2018-09-20T10:42:54.235Z,25.24
2018-09-20T10:45:23.028Z,25.41
2018-09-20T10:47:51.608Z,25.47
2018-09-20T10:50:20.324Z,25.57
2018-09-20T10:52:48.887Z,25.60
2018-09-20T10:55:17.569Z,25.54
2018-09-20T10:57:46.594Z,25.55
2018-09-20T11:00:15.298Z,25.51
2018-09-20T11:02:43.975Z,25.33
2018-09-20T11:05:12.795Z,25.31
2018-09-20T11:07:41.731Z,25.36
2018-09-20T11:10:10.591Z,25.44
2018-09-20T11:12:39.537Z,25.56
2018-09-20T11:15:08.264Z,25.68
2018-09-20T11:17:37.028Z,25.82
2018-09-20T11:20:06.721Z,26.01
2018-09-20T11:22:35.568Z,26.17
2018-09-20T11:25:05.218Z,26.33
2018-09-20T11:27:34.093Z,26.39
2018-09-20T11:30:03.796Z,26.27
2018-09-20T11:32:33.627Z,26.17
2018-09-20T11:35:02.979Z,26.17
2018-09-20T11:37:31.908Z,26.17
2018-09-20T11:40:00.736Z,26.13
2018-09-20T11:42:29.463Z,26.12
2018-09-20T11:44:59.239Z,26.04
2018-09-20T11:47:27.843Z,25.89
2018-09-20T11:49:56.611Z,25.85
2018-09-20T11:52:25.586Z,25.97
2018-09-20T11:54:54.303Z,26.02
2018-09-20T11:57:23.183Z,26.09
2018-09-20T11:59:52.152Z,26.19
2018-09-20T12:02:20.983Z,26.31
2018-09-20T12:04:49.752Z,26.41
2018-09-20T12:07:19.000Z,26.55
2018-09-20T12:09:47.711Z,26.67
2018-09-20T12:12:16.421Z,26.73
2018-09-20T12:14:44.994Z,26.70
2018-09-20T12:17:13.746Z,26.68
2018-09-20T12:19:42.585Z,26.66
2018-09-20T12:22:11.360Z,26.66
2018-09-20T12:24:40.428Z,26.60
2018-09-20T12:27:09.408Z,26.51
2018-09-20T12:29:38.302Z,26.48
2018-09-20T12:32:07.313Z,26.44
2018-09-20T12:34:36.454Z,26.36
2018-09-20T12:37:05.486Z,26.24
2018-09-20T12:39:34.290Z,26.20
2018-09-20T12:42:03.831Z,26.26
2018-09-20T12:44:32.823Z,26.27
2018-09-20T12:47:02.732Z,26.20
2018-09-20T12:49:31.986Z,26.20
2018-09-20T12:52:01.388Z,26.16
2018-09-20T12:54:30.419Z,26.15
2018-09-20T12:56:59.437Z,26.15
2018-09-20T12:59:28.254Z,26.13
2018-09-20T13:01:57.160Z,26.14
2018-09-20T13:04:26.591Z,26.20
2018-09-20T13:06:55.258Z,26.25
2018-09-20T13:09:23.966Z,26.35
2018-09-20T13:11:52.711Z,26.46
2018-09-20T13:14:21.481Z,26.50
2018-09-20T13:16:50.444Z,26.60
2018-09-20T13:19:19.226Z,26.61
2018-09-20T13:21:48.220Z,26.68
2018-09-20T13:24:16.910Z,26.69
2018-09-20T13:26:45.642Z,26.69
2018-09-20T13:29:14.397Z,26.65
2018-09-20T13:31:49.906Z,26.68
2018-09-20T13:34:18.829Z,26.70
2018-09-20T13:36:47.537Z,26.81
2018-09-20T13:39:16.205Z,26.80
2018-09-20T13:41:45.057Z,26.73
2018-09-20T13:44:13.747Z,26.78
2018-09-20T13:46:42.521Z,26.88
2018-09-20T13:49:11.424Z,26.98
2018-09-20T13:51:40.205Z,27.15
2018-09-20T13:54:09.073Z,27.27
2018-09-20T13:59:11.426Z,27.33
2018-09-20T14:01:40.290Z,27.48
2018-09-20T14:04:08.949Z,27.54
2018-09-20T14:06:37.636Z,27.59
2018-09-20T14:09:09.753Z,27.70
2018-09-20T14:11:38.952Z,27.79
2018-09-20T14:14:07.882Z,27.84
2018-09-20T14:16:36.617Z,27.99
2018-09-20T14:19:05.592Z,28.06
2018-09-20T14:21:34.214Z,28.12
2018-09-20T14:24:03.378Z,28.12
2018-09-20T14:26:32.073Z,28.05
2018-09-20T14:29:00.943Z,28.07
2018-09-20T14:31:29.957Z,28.06
2018-09-20T14:33:58.724Z,27.89
2018-09-20T14:36:27.579Z,27.73
2018-09-20T14:38:56.374Z,27.67
2018-09-20T14:41:25.358Z,27.64
2018-09-20T14:43:54.255Z,27.74
2018-09-20T14:46:22.970Z,27.77
2018-09-20T14:48:51.611Z,27.78
2018-09-20T14:51:20.317Z,27.78
2018-09-20T14:53:49.183Z,27.81
2018-09-20T14:56:18.049Z,27.81
2018-09-20T14:58:46.814Z,27.93
2018-09-20T15:01:15.755Z,27.93
2018-09-20T15:03:44.417Z,27.85
2018-09-20T15:06:13.168Z,27.82
2018-09-20T15:08:41.759Z,27.70
2018-09-20T15:11:10.488Z,27.57
2018-09-20T15:13:39.365Z,27.49
2018-09-20T15:16:08.236Z,27.46
2018-09-20T15:18:36.993Z,27.62
2018-09-20T15:21:05.662Z,27.78
2018-09-20T15:23:34.357Z,27.87
2018-09-20T15:26:04.367Z,27.87
2018-09-20T15:28:33.154Z,27.88
2018-09-20T15:31:02.723Z,27.81
2018-09-20T15:33:36.676Z,27.68
2018-09-20T15:36:05.502Z,27.48
2018-09-20T15:38:34.378Z,27.34
2018-09-20T15:41:03.866Z,27.21
2018-09-20T15:43:32.674Z,27.09
2018-09-20T15:46:01.881Z,27.00
2018-09-20T15:48:30.695Z,26.89
2018-09-20T15:50:59.515Z,26.81
2018-09-20T15:53:28.386Z,26.72
2018-09-20T15:55:57.128Z,26.63
2018-09-20T15:58:25.868Z,26.55
2018-09-20T16:00:54.841Z,26.51
2018-09-20T16:03:23.812Z,26.46
2018-09-20T16:05:52.753Z,26.39
2018-09-20T16:08:21.528Z,26.33
2018-09-20T16:10:51.027Z,26.32
2018-09-20T16:13:19.867Z,26.27
2018-09-20T16:15:49.172Z,26.23
2018-09-20T16:18:17.907Z,26.21
2018-09-20T16:20:46.512Z,26.16
2018-09-20T16:23:15.136Z,26.14
2018-09-20T16:25:44.141Z,26.12
2018-09-20T16:28:52.482Z,26.06
2018-09-20T16:31:53.199Z,26.02
2018-09-20T16:36:37.768Z,25.96
2018-09-20T16:39:19.978Z,25.89
2018-09-20T16:41:51.826Z,25.86
2018-09-20T16:44:20.545Z,25.83
2018-09-20T16:46:50.282Z,25.78
2018-09-20T16:49:19.014Z,25.74
2018-09-20T16:51:47.825Z,25.70
2018-09-20T16:54:16.561Z,25.66
2018-09-20T16:56:45.308Z,25.60
2018-09-20T16:59:14.149Z,25.56
2018-09-20T17:01:42.880Z,25.52
2018-09-20T17:04:11.806Z,25.46
2018-09-20T17:06:40.569Z,25.41
2018-09-20T17:09:09.886Z,25.36
2018-09-20T17:11:39.032Z,25.31
2018-09-20T17:14:08.112Z,25.23
2018-09-20T17:16:37.094Z,25.18
2018-09-20T17:19:06.614Z,25.12
2018-09-20T17:21:35.607Z,25.07
2018-09-20T17:24:05.078Z,25.03
2018-09-20T17:26:34.563Z,24.92
2018-09-20T17:29:04.425Z,24.89
2018-09-20T17:31:33.674Z,24.83
2018-09-20T17:34:07.553Z,24.76
2018-09-20T17:36:38.550Z,24.65
2018-09-20T17:39:18.253Z,24.52
2018-09-20T17:41:49.977Z,24.43
2018-09-20T17:44:19.248Z,24.33
2018-09-20T17:46:47.968Z,24.24
2018-09-20T17:49:16.702Z,24.13
2018-09-20T17:51:46.034Z,24.08
2018-09-20T17:54:15.342Z,23.96
2018-09-20T17:56:47.693Z,23.89
2018-09-20T17:59:18.928Z,23.82
2018-09-20T18:01:48.774Z,23.72
2018-09-20T18:04:20.332Z,23.62
2018-09-20T18:06:53.630Z,23.53
2018-09-20T18:09:25.304Z,23.45
2018-09-20T18:12:02.092Z,23.39
2018-09-20T18:14:31.117Z,23.27
2018-09-20T18:17:00.742Z,23.23
2018-09-20T18:19:30.278Z,23.23
2018-09-20T18:21:59.985Z,23.18
2018-09-20T18:24:28.733Z,23.12
2018-09-20T18:26:57.572Z,23.04
2018-09-20T18:29:27.194Z,23.00
2018-09-20T18:31:55.974Z,22.93
2018-09-20T18:34:24.864Z,22.88
2018-09-20T18:36:53.942Z,22.73
2018-09-20T18:39:23.841Z,22.78
2018-09-20T18:41:52.653Z,22.78
2018-09-20T18:44:21.326Z,22.75
2018-09-20T18:46:50.272Z,22.72
2018-09-20T18:49:19.049Z,22.64
2018-09-20T18:51:48.047Z,22.61
2018-09-20T18:54:16.984Z,22.56
2018-09-20T18:56:45.758Z,22.50
2018-09-20T18:59:14.410Z,22.50
2018-09-20T19:01:43.281Z,22.52
2018-09-20T19:04:12.221Z,22.51
2018-09-20T19:06:40.881Z,22.48
2018-09-20T19:09:15.692Z,22.44
2018-09-20T19:11:45.560Z,22.40
2018-09-20T19:14:14.353Z,22.37
2018-09-20T19:16:43.197Z,22.34
2018-09-20T19:19:12.132Z,22.29
2018-09-20T19:21:41.353Z,22.26
2018-09-20T19:24:10.688Z,22.19
2018-09-20T19:26:39.451Z,22.14
2018-09-20T19:29:08.324Z,22.06
2018-09-20T19:31:38.136Z,22.02
2018-09-20T19:34:07.261Z,21.99
2018-09-20T19:36:36.643Z,21.95
2018-09-20T19:39:08.562Z,21.91
2018-09-20T19:41:37.377Z,21.85
2018-09-20T19:44:06.775Z,21.81
2018-09-20T19:46:35.665Z,21.76
2018-09-20T19:49:05.121Z,21.74
2018-09-20T19:51:34.166Z,21.69
2018-09-20T19:54:03.466Z,21.67
2018-09-20T19:58:01.642Z,21.65
2018-09-20T20:00:30.737Z,21.58
2018-09-20T20:02:59.659Z,21.58
2018-09-20T20:05:28.545Z,21.55
2018-09-20T20:07:57.514Z,21.51
2018-09-20T20:10:26.600Z,21.47
2018-09-20T20:12:55.455Z,21.42
2018-09-20T20:15:24.456Z,21.38
2018-09-20T20:17:54.045Z,21.34
2018-09-20T20:20:23.574Z,21.32
2018-09-20T20:22:52.897Z,21.32
2018-09-20T20:25:21.730Z,21.27
2018-09-20T20:27:50.817Z,21.23
2018-09-20T20:30:19.864Z,21.21
2018-09-20T20:32:48.844Z,21.18
2018-09-20T20:35:17.979Z,21.18
2018-09-20T20:37:46.672Z,21.15
2018-09-20T20:40:15.806Z,21.10
2018-09-20T20:42:45.431Z,21.10
2018-09-20T20:45:14.260Z,21.09
2018-09-20T20:47:43.174Z,21.06
2018-09-20T20:50:12.105Z,21.02
2018-09-20T20:52:41.217Z,21.01
2018-09-20T20:55:11.233Z,20.98
2018-09-20T20:57:40.052Z,20.96
2018-09-20T21:00:09.135Z,21.03
2018-09-20T21:02:37.951Z,21.13
2018-09-20T21:05:07.361Z,21.26
2018-09-20T21:07:36.317Z,21.39
2018-09-20T21:10:05.085Z,21.51
2018-09-20T21:12:33.872Z,21.66
2018-09-20T21:15:02.551Z,21.77
2018-09-20T21:17:31.347Z,21.88
2018-09-20T21:20:00.078Z,22.01
2018-09-20T21:22:28.657Z,22.06
2018-09-20T21:24:57.389Z,22.14
2018-09-20T21:27:26.055Z,22.20
2018-09-20T21:29:54.758Z,22.24
2018-09-20T21:32:23.677Z,22.28
2018-09-20T21:34:52.436Z,22.34
2018-09-20T21:37:21.267Z,22.35
2018-09-20T21:39:50.108Z,22.43
2018-09-20T21:42:18.843Z,22.44
2018-09-20T21:44:47.543Z,22.43
2018-09-20T21:47:16.647Z,22.40
2018-09-20T21:49:45.461Z,22.38
2018-09-20T21:52:14.725Z,22.36
2018-09-20T21:54:43.430Z,22.35
2018-09-20T21:57:12.232Z,22.34
2018-09-20T21:59:41.083Z,22.27
2018-09-20T22:02:09.980Z,22.21
2018-09-20T22:04:38.865Z,22.13
2018-09-20T22:07:07.660Z,22.04
2018-09-20T22:09:36.939Z,21.96
2018-09-20T22:12:05.664Z,21.86
2018-09-20T22:14:34.308Z,21.86
2018-09-20T22:17:04.020Z,21.79
2018-09-20T22:19:32.788Z,21.78
2018-09-20T22:22:02.494Z,21.77
2018-09-20T22:24:31.885Z,21.71
2018-09-20T22:27:00.874Z,21.70
2018-09-20T22:29:29.617Z,21.66
2018-09-20T22:31:59.056Z,21.66
2018-09-20T22:34:27.919Z,21.67
2018-09-20T22:36:56.685Z,21.60
2018-09-20T22:39:25.490Z,21.62
2018-09-20T22:41:54.245Z,21.59
2018-09-20T22:44:23.480Z,21.55
2018-09-20T22:46:52.095Z,21.55
2018-09-20T22:49:21.282Z,21.53
2018-09-20T22:51:49.974Z,21.45
2018-09-20T22:54:18.539Z,21.47
2018-09-20T22:56:47.400Z,21.43
2018-09-20T22:59:16.191Z,21.39
2018-09-20T23:01:44.987Z,21.36
2018-09-20T23:04:13.736Z,21.34
2018-09-20T23:06:42.359Z,21.30
2018-09-20T23:09:11.608Z,21.26
2018-09-20T23:11:41.136Z,21.26
2018-09-20T23:14:11.035Z,21.22
2018-09-20T23:16:39.857Z,21.20
2018-09-20T23:19:08.929Z,21.22
2018-09-20T23:21:37.616Z,21.12
2018-09-20T23:24:06.443Z,21.09
2018-09-20T23:26:35.209Z,21.08
2018-09-20T23:29:05.092Z,21.03
2018-09-20T23:31:33.775Z,20.98
2018-09-20T23:34:02.797Z,20.96
2018-09-20T23:36:31.468Z,20.98
2018-09-20T23:39:00.566Z,20.95
2018-09-20T23:41:29.436Z,20.94
2018-09-20T23:43:58.353Z,20.91
2018-09-20T23:46:27.119Z,20.89
2018-09-20T23:48:55.930Z,20.84
2018-09-20T23:51:24.636Z,20.81
2018-09-20T23:53:53.290Z,20.78
2018-09-20T23:56:22.184Z,20.73
2018-09-20T23:58:50.888Z,20.75
